Oliver Springs, Tennessee
Current Conditions -  °F | °C
As of 12:53 PM on Tuesday 21 Oct 2014 (Local Time) from KOQT Reporting Station
Scattered Clouds Scattered Clouds  
Wind Chill: 66°   Ceiling: Unl
Heat Index: 66°   Visibility: 10mi
Dew Point: 43°   Wind: 3mph
Humidity: 43%   Direction: NA
Pressure: 30.04"   Gusts: NA
Location:  36.04°N, 84.34°W
Report Text: KOQT 211653Z AUTO VRB03KT 10SM FEW045 SCT055 19/06 A3004 RMK AO2 SLP168 T01890061
Loading
Personal Weather Stations






























Interactive Weather Map New forecast layout! Learn more

10-Day Weather Forecast

Advertisements
Track Severe Weather on mobile